Terminal Aerodrome Forecast
Issued by NWS

Home | Current Version | Previous Version | Text Only | Print | Product List | Glossary On
Versions: 1 2 3 4 5 6 7 8 9 10 11 12 13 14 15 16 17 18 19 20 21 22 23 24
000
FTUS43 KAPX 252324
TAFAPN
TAF
KAPN 252324Z 2600/2624 04007KT P6SM SCT026
     FM260200 06004KT P6SM SCT025
     FM260900 07005KT P6SM BKN018
     FM261400 11008KT P6SM BKN035=

USA.gov is the U.S. government's official web portal to all federal, state and local government web resources and services.